This is the latest recevied weather packets stored in our database for station/object W4DHW-4. If no packets are shown the sender has not sent any weather packets the latest 1 day(s).
| Time | Temp. | Humidity | Pressure | Rain* | Wind** | Luminosity | Snow |
|---|---|---|---|---|---|---|---|
| 1778002704 | 25.56° C | 32% | 1013.4 hPa | 0 mm | 4.92 m/s, 215° | 741 W/m² | - |
| 1778002400 | 25.56° C | 36% | 1013.5 hPa | 0 mm | 1.79 m/s, 243° | 734 W/m² | - |
| 1778002098 | 25° C | 35% | 1013.6 hPa | 0 mm | 2.68 m/s, 264° | 734 W/m² | - |
| 1778001796 | 25° C | 34% | 1013.8 hPa | 0 mm | 6.26 m/s, 251° | 709 W/m² | - |
| 1778001495 | 25° C | 36% | 1013.9 hPa | 0 mm | 1.79 m/s, 262° | 733 W/m² | - |
| 1778001193 | 25° C | 37% | 1013.7 hPa | 0 mm | 1.34 m/s, 267° | 674 W/m² | - |
| 1778000889 | 25° C | 37% | 1014 hPa | 0 mm | 1.79 m/s, 264° | 783 W/m² | - |
| 1778000586 | 25° C | 38% | 1014 hPa | 0 mm | 2.24 m/s, 276° | 771 W/m² | - |
| 1778000281 | 25° C | 38% | 1013.9 hPa | 0 mm | 2.24 m/s, 242° | 799 W/m² | - |
| 1777999977 | 25° C | 39% | 1014 hPa | 0 mm | 2.68 m/s, 184° | 816 W/m² | - |
| 1777999673 | 25° C | 38% | 1014.1 hPa | 0 mm | 4.02 m/s, 257° | 778 W/m² | - |
| 1777999370 | 24.44° C | 39% | 1013.9 hPa | 0 mm | 4.47 m/s, 257° | 730 W/m² | - |
| 1777999068 | 24.44° C | 41% | 1014.1 hPa | 0 mm | 3.13 m/s, 262° | 770 W/m² | - |
| 1777998767 | 24.44° C | 40% | 1014.2 hPa | 0 mm | 4.02 m/s, 214° | 789 W/m² | - |
| 1777998464 | 25° C | 41% | 1014.3 hPa | 0 mm | 2.68 m/s, 194° | 766 W/m² | - |
| 1777998161 | 23.89° C | 42% | 1014.3 hPa | 0 mm | 2.24 m/s, 245° | 727 W/m² | - |
| 1777997857 | 24.44° C | 42% | 1014.4 hPa | 0 mm | 1.79 m/s, 291° | 719 W/m² | - |
| 1777997555 | 24.44° C | 42% | 1014.4 hPa | 0 mm | 4.47 m/s, 272° | 747 W/m² | - |
| 1777997252 | 24.44° C | 41% | 1014.6 hPa | 0 mm | 2.24 m/s, 290° | 768 W/m² | - |
| 1777996950 | 23.89° C | 41% | 1014.6 hPa | 0 mm | 3.13 m/s, 242° | 731 W/m² | - |
| 1777996646 | 23.89° C | 42% | 1014.8 hPa | 0 mm | 4.02 m/s, 273° | 753 W/m² | - |
| 1777996343 | 23.89° C | 43% | 1015 hPa | 0 mm | 2.68 m/s, 175° | 809 W/m² | - |
| 1777996039 | 23.89° C | 43% | 1014.9 hPa | 0 mm | 1.34 m/s, 272° | 815 W/m² | - |
| 1777995735 | 23.89° C | 43% | 1015.1 hPa | 0 mm | 2.68 m/s, 222° | 760 W/m² | - |
| 1777995432 | 23.89° C | 41% | 1014.7 hPa | 0 mm | 4.02 m/s, 238° | 681 W/m² | - |
* Rain latest hour (hover to see other rain measurements)
** Current wind speed in m/s (hover to see current wind gust speed)